sensor_id;sensor_type;location;lat;lon;timestamp;pressure;altitude;pressure_sealevel;temperature
69007;BMP180;56061;51.748;19.620;2023-03-08T00:02:14;96979.20;;;2.10
69007;BMP180;56061;51.748;19.620;2023-03-08T00:04:40;96971.80;;;2.02
69007;BMP180;56061;51.748;19.620;2023-03-08T00:07:07;96975.20;;;2.10
69007;BMP180;56061;51.748;19.620;2023-03-08T00:09:33;96978.20;;;2.10
69007;BMP180;56061;51.748;19.620;2023-03-08T00:12:02;96984.00;;;2.10
69007;BMP180;56061;51.748;19.620;2023-03-08T00:14:28;96985.40;;;2.10
69007;BMP180;56061;51.748;19.620;2023-03-08T00:16:55;96984.20;;;2.00
69007;BMP180;56061;51.748;19.620;2023-03-08T00:19:21;96989.00;;;2.00
69007;BMP180;56061;51.748;19.620;2023-03-08T00:21:48;96983.00;;;1.90
69007;BMP180;56061;51.748;19.620;2023-03-08T00:24:14;96985.20;;;1.88
69007;BMP180;56061;51.748;19.620;2023-03-08T00:26:42;96984.20;;;1.80
69007;BMP180;56061;51.748;19.620;2023-03-08T00:29:09;96978.80;;;1.80
69007;BMP180;56061;51.748;19.620;2023-03-08T00:31:35;96979.00;;;1.80
69007;BMP180;56061;51.748;19.620;2023-03-08T00:34:02;96978.20;;;1.86
69007;BMP180;56061;51.748;19.620;2023-03-08T00:36:29;96988.00;;;1.90
69007;BMP180;56061;51.748;19.620;2023-03-08T00:38:56;96984.60;;;1.90
69007;BMP180;56061;51.748;19.620;2023-03-08T00:41:22;96984.00;;;1.84
69007;BMP180;56061;51.748;19.620;2023-03-08T00:43:49;96981.00;;;1.80
69007;BMP180;56061;51.748;19.620;2023-03-08T00:46:16;96982.80;;;1.80
69007;BMP180;56061;51.748;19.620;2023-03-08T00:48:43;96977.20;;;1.72
69007;BMP180;56061;51.748;19.620;2023-03-08T00:51:13;96979.00;;;1.70
69007;BMP180;56061;51.748;19.620;2023-03-08T00:53:40;96978.40;;;1.70
69007;BMP180;56061;51.748;19.620;2023-03-08T00:56:07;96984.80;;;1.70
69007;BMP180;56061;51.748;19.620;2023-03-08T00:58:37;96987.80;;;1.70
69007;BMP180;56061;51.748;19.620;2023-03-08T01:01:06;96988.40;;;1.70
69007;BMP180;56061;51.748;19.620;2023-03-08T01:03:34;96988.60;;;1.66
69007;BMP180;56061;51.748;19.620;2023-03-08T01:06:09;96986.60;;;1.60
69007;BMP180;56061;51.748;19.620;2023-03-08T01:08:36;96981.20;;;1.60
69007;BMP180;56061;51.748;19.620;2023-03-08T01:11:03;96980.80;;;1.60
69007;BMP180;56061;51.748;19.620;2023-03-08T01:13:34;96985.40;;;1.56
69007;BMP180;56061;51.748;19.620;2023-03-08T01:16:01;96986.80;;;1.60
69007;BMP180;56061;51.748;19.620;2023-03-08T01:18:28;96982.80;;;1.50
69007;BMP180;56061;51.748;19.620;2023-03-08T01:21:01;96991.20;;;1.50
69007;BMP180;56061;51.748;19.620;2023-03-08T01:23:29;96990.80;;;1.56
69007;BMP180;56061;51.748;19.620;2023-03-08T01:26:01;97002.00;;;1.60
69007;BMP180;56061;51.748;19.620;2023-03-08T01:28:29;97001.80;;;1.60
69007;BMP180;56061;51.748;19.620;2023-03-08T01:31:21;97004.60;;;1.60
69007;BMP180;56061;51.748;19.620;2023-03-08T01:33:48;97005.20;;;1.60
69007;BMP180;56061;51.748;19.620;2023-03-08T01:36:19;97006.00;;;1.50
69007;BMP180;56061;51.748;19.620;2023-03-08T01:38:47;97003.00;;;1.50
69007;BMP180;56061;51.748;19.620;2023-03-08T01:41:22;97005.20;;;1.50
69007;BMP180;56061;51.748;19.620;2023-03-08T01:43:50;97005.80;;;1.50
69007;BMP180;56061;51.748;19.620;2023-03-08T01:46:31;97007.00;;;1.50
69007;BMP180;56061;51.748;19.620;2023-03-08T01:49:18;96999.40;;;1.50
69007;BMP180;56061;51.748;19.620;2023-03-08T01:52:02;97005.00;;;1.50
69007;BMP180;56061;51.748;19.620;2023-03-08T01:54:42;97003.60;;;1.50
69007;BMP180;56061;51.748;19.620;2023-03-08T01:57:32;97001.00;;;1.50
69007;BMP180;56061;51.748;19.620;2023-03-08T02:00:14;97000.40;;;1.50
69007;BMP180;56061;51.748;19.620;2023-03-08T02:02:56;97004.00;;;1.48
69007;BMP180;56061;51.748;19.620;2023-03-08T02:05:24;97000.20;;;1.42
69007;BMP180;56061;51.748;19.620;2023-03-08T02:07:51;97004.60;;;1.40
69007;BMP180;56061;51.748;19.620;2023-03-08T02:13:38;97011.80;;;1.40
69007;BMP180;56061;51.748;19.620;2023-03-08T02:16:09;97013.20;;;1.40
69007;BMP180;56061;51.748;19.620;2023-03-08T02:18:52;97010.80;;;1.46
69007;BMP180;56061;51.748;19.620;2023-03-08T02:21:20;97010.40;;;1.50
69007;BMP180;56061;51.748;19.620;2023-03-08T02:23:46;97013.00;;;1.50
69007;BMP180;56061;51.748;19.620;2023-03-08T02:26:13;97014.80;;;1.50
69007;BMP180;56061;51.748;19.620;2023-03-08T02:28:40;97009.20;;;1.50
69007;BMP180;56061;51.748;19.620;2023-03-08T02:31:07;97012.40;;;1.50
69007;BMP180;56061;51.748;19.620;2023-03-08T02:33:33;97014.80;;;1.50
69007;BMP180;56061;51.748;19.620;2023-03-08T02:36:03;97016.40;;;1.40
69007;BMP180;56061;51.748;19.620;2023-03-08T02:38:30;97017.60;;;1.40
69007;BMP180;56061;51.748;19.620;2023-03-08T02:40:56;97014.40;;;1.40
69007;BMP180;56061;51.748;19.620;2023-03-08T02:43:23;97018.40;;;1.40
69007;BMP180;56061;51.748;19.620;2023-03-08T02:45:50;97023.60;;;1.40
69007;BMP180;56061;51.748;19.620;2023-03-08T02:48:17;97023.00;;;1.40
69007;BMP180;56061;51.748;19.620;2023-03-08T02:50:44;97036.40;;;1.40
69007;BMP180;56061;51.748;19.620;2023-03-08T02:53:11;97041.60;;;1.30
69007;BMP180;56061;51.748;19.620;2023-03-08T02:55:37;97046.00;;;1.30
69007;BMP180;56061;51.748;19.620;2023-03-08T02:58:07;97046.40;;;1.30
69007;BMP180;56061;51.748;19.620;2023-03-08T03:00:35;97054.20;;;1.26
69007;BMP180;56061;51.748;19.620;2023-03-08T03:03:02;97065.20;;;1.20
69007;BMP180;56061;51.748;19.620;2023-03-08T03:05:28;97070.40;;;1.20
69007;BMP180;56061;51.748;19.620;2023-03-08T03:07:55;97070.60;;;1.20
69007;BMP180;56061;51.748;19.620;2023-03-08T03:10:24;97073.00;;;1.20
69007;BMP180;56061;51.748;19.620;2023-03-08T03:12:50;97079.20;;;1.20
69007;BMP180;56061;51.748;19.620;2023-03-08T03:15:17;97075.00;;;1.20
69007;BMP180;56061;51.748;19.620;2023-03-08T03:17:44;97076.20;;;1.08
69007;BMP180;56061;51.748;19.620;2023-03-08T03:20:11;97078.80;;;1.10
69007;BMP180;56061;51.748;19.620;2023-03-08T03:22:37;97084.20;;;1.10
69007;BMP180;56061;51.748;19.620;2023-03-08T03:25:04;97086.20;;;1.10
69007;BMP180;56061;51.748;19.620;2023-03-08T03:27:31;97087.00;;;1.10
69007;BMP180;56061;51.748;19.620;2023-03-08T03:29:57;97080.60;;;1.10
69007;BMP180;56061;51.748;19.620;2023-03-08T03:32:24;97092.40;;;1.10
69007;BMP180;56061;51.748;19.620;2023-03-08T03:34:51;97094.60;;;1.10
69007;BMP180;56061;51.748;19.620;2023-03-08T03:37:17;97103.60;;;1.10
69007;BMP180;56061;51.748;19.620;2023-03-08T03:39:44;97109.00;;;1.10
69007;BMP180;56061;51.748;19.620;2023-03-08T03:42:10;97111.80;;;1.12
69007;BMP180;56061;51.748;19.620;2023-03-08T03:44:37;97113.60;;;1.18
69007;BMP180;56061;51.748;19.620;2023-03-08T03:47:04;97117.60;;;1.16
69007;BMP180;56061;51.748;19.620;2023-03-08T03:49:31;97115.20;;;1.10
69007;BMP180;56061;51.748;19.620;2023-03-08T03:51:58;97118.60;;;1.10
69007;BMP180;56061;51.748;19.620;2023-03-08T03:54:25;97120.60;;;1.10
69007;BMP180;56061;51.748;19.620;2023-03-08T03:56:52;97125.20;;;1.10
69007;BMP180;56061;51.748;19.620;2023-03-08T03:59:20;97124.40;;;1.00
69007;BMP180;56061;51.748;19.620;2023-03-08T04:01:47;97123.20;;;1.00
69007;BMP180;56061;51.748;19.620;2023-03-08T04:04:13;97124.00;;;1.00
69007;BMP180;56061;51.748;19.620;2023-03-08T04:06:39;97118.00;;;1.00
69007;BMP180;56061;51.748;19.620;2023-03-08T04:09:14;97114.80;;;1.10
69007;BMP180;56061;51.748;19.620;2023-03-08T04:11:41;97120.40;;;1.10
69007;BMP180;56061;51.748;19.620;2023-03-08T04:14:08;97122.60;;;1.08
69007;BMP180;56061;51.748;19.620;2023-03-08T04:16:37;97125.00;;;1.10
69007;BMP180;56061;51.748;19.620;2023-03-08T04:19:09;97128.00;;;1.04
69007;BMP180;56061;51.748;19.620;2023-03-08T04:21:36;97129.40;;;1.00
69007;BMP180;56061;51.748;19.620;2023-03-08T04:24:03;97130.40;;;1.00
69007;BMP180;56061;51.748;19.620;2023-03-08T04:26:30;97125.60;;;1.00
69007;BMP180;56061;51.748;19.620;2023-03-08T04:28:57;97129.40;;;1.00
69007;BMP180;56061;51.748;19.620;2023-03-08T04:31:27;97129.60;;;1.00
69007;BMP180;56061;51.748;19.620;2023-03-08T04:33:55;97135.40;;;1.00
69007;BMP180;56061;51.748;19.620;2023-03-08T04:36:23;97141.40;;;1.00
69007;BMP180;56061;51.748;19.620;2023-03-08T04:38:50;97154.40;;;1.00
69007;BMP180;56061;51.748;19.620;2023-03-08T04:41:18;97153.20;;;1.00
69007;BMP180;56061;51.748;19.620;2023-03-08T04:43:51;97158.40;;;1.00
69007;BMP180;56061;51.748;19.620;2023-03-08T04:46:22;97156.40;;;1.00
69007;BMP180;56061;51.748;19.620;2023-03-08T04:48:50;97148.20;;;0.90
69007;BMP180;56061;51.748;19.620;2023-03-08T04:51:24;97153.40;;;0.90
69007;BMP180;56061;51.748;19.620;2023-03-08T04:53:51;97148.40;;;0.90
69007;BMP180;56061;51.748;19.620;2023-03-08T04:56:18;97149.80;;;0.86
69007;BMP180;56061;51.748;19.620;2023-03-08T04:58:45;97156.80;;;0.82
69007;BMP180;56061;51.748;19.620;2023-03-08T05:01:15;97158.00;;;0.80
69007;BMP180;56061;51.748;19.620;2023-03-08T05:03:44;97158.40;;;0.90
69007;BMP180;56061;51.748;19.620;2023-03-08T05:06:12;97166.80;;;0.90
69007;BMP180;56061;51.748;19.620;2023-03-08T05:08:41;97168.00;;;0.90
69007;BMP180;56061;51.748;19.620;2023-03-08T05:11:09;97168.00;;;0.90
69007;BMP180;56061;51.748;19.620;2023-03-08T05:13:37;97170.20;;;0.90
69007;BMP180;56061;51.748;19.620;2023-03-08T05:16:06;97177.60;;;0.90
69007;BMP180;56061;51.748;19.620;2023-03-08T05:18:33;97184.20;;;0.90
69007;BMP180;56061;51.748;19.620;2023-03-08T05:21:04;97186.40;;;0.88
69007;BMP180;56061;51.748;19.620;2023-03-08T05:23:32;97184.00;;;0.82
69007;BMP180;56061;51.748;19.620;2023-03-08T05:26:02;97189.40;;;0.90
69007;BMP180;56061;51.748;19.620;2023-03-08T05:28:32;97192.40;;;0.88
69007;BMP180;56061;51.748;19.620;2023-03-08T05:31:20;97190.00;;;0.90
69007;BMP180;56061;51.748;19.620;2023-03-08T05:33:50;97193.80;;;0.90
69007;BMP180;56061;51.748;19.620;2023-03-08T05:36:17;97196.40;;;0.98
69007;BMP180;56061;51.748;19.620;2023-03-08T05:38:44;97195.20;;;0.96
69007;BMP180;56061;51.748;19.620;2023-03-08T05:41:15;97200.20;;;1.00
69007;BMP180;56061;51.748;19.620;2023-03-08T05:43:42;97215.20;;;1.00
69007;BMP180;56061;51.748;19.620;2023-03-08T05:46:17;97215.40;;;1.00
69007;BMP180;56061;51.748;19.620;2023-03-08T05:48:44;97216.40;;;1.00
69007;BMP180;56061;51.748;19.620;2023-03-08T05:51:15;97219.60;;;1.10
69007;BMP180;56061;51.748;19.620;2023-03-08T05:53:42;97221.80;;;1.10
69007;BMP180;56061;51.748;19.620;2023-03-08T05:56:14;97227.60;;;1.10
69007;BMP180;56061;51.748;19.620;2023-03-08T05:58:42;97231.00;;;1.10
69007;BMP180;56061;51.748;19.620;2023-03-08T06:01:22;97234.40;;;1.20
69007;BMP180;56061;51.748;19.620;2023-03-08T06:03:52;97243.00;;;1.20
69007;BMP180;56061;51.748;19.620;2023-03-08T06:06:24;97241.20;;;1.20
69007;BMP180;56061;51.748;19.620;2023-03-08T06:08:51;97244.40;;;1.20
69007;BMP180;56061;51.748;19.620;2023-03-08T06:11:19;97251.40;;;1.20
69007;BMP180;56061;51.748;19.620;2023-03-08T06:13:46;97254.00;;;1.20
69007;BMP180;56061;51.748;19.620;2023-03-08T06:16:13;97257.00;;;1.20
69007;BMP180;56061;51.748;19.620;2023-03-08T06:18:40;97262.20;;;1.28
69007;BMP180;56061;51.748;19.620;2023-03-08T06:21:13;97266.40;;;1.30
69007;BMP180;56061;51.748;19.620;2023-03-08T06:23:41;97268.20;;;1.40
69007;BMP180;56061;51.748;19.620;2023-03-08T06:26:10;97282.80;;;1.40
69007;BMP180;56061;51.748;19.620;2023-03-08T06:28:37;97276.80;;;1.50
69007;BMP180;56061;51.748;19.620;2023-03-08T06:31:07;97278.40;;;1.52
69007;BMP180;56061;51.748;19.620;2023-03-08T06:33:34;97281.60;;;1.60
69007;BMP180;56061;51.748;19.620;2023-03-08T06:36:08;97284.40;;;1.70
69007;BMP180;56061;51.748;19.620;2023-03-08T06:38:38;97285.00;;;1.68
69007;BMP180;56061;51.748;19.620;2023-03-08T06:41:08;97290.00;;;1.70
69007;BMP180;56061;51.748;19.620;2023-03-08T06:43:35;97292.20;;;1.70
69007;BMP180;56061;51.748;19.620;2023-03-08T06:46:07;97300.60;;;1.70
69007;BMP180;56061;51.748;19.620;2023-03-08T06:48:35;97303.60;;;1.80
69007;BMP180;56061;51.748;19.620;2023-03-08T06:51:03;97307.60;;;1.80
69007;BMP180;56061;51.748;19.620;2023-03-08T06:53:31;97310.20;;;1.80
69007;BMP180;56061;51.748;19.620;2023-03-08T06:55:58;97307.40;;;1.80
69007;BMP180;56061;51.748;19.620;2023-03-08T06:58:28;97313.20;;;1.90
69007;BMP180;56061;51.748;19.620;2023-03-08T07:00:55;97314.60;;;1.90
69007;BMP180;56061;51.748;19.620;2023-03-08T07:03:21;97310.80;;;1.96
69007;BMP180;56061;51.748;19.620;2023-03-08T07:05:48;97313.40;;;2.06
69007;BMP180;56061;51.748;19.620;2023-03-08T07:08:15;97310.80;;;2.20
69007;BMP180;56061;51.748;19.620;2023-03-08T07:10:42;97310.80;;;2.30
69007;BMP180;56061;51.748;19.620;2023-03-08T07:13:08;97316.20;;;2.46
69007;BMP180;56061;51.748;19.620;2023-03-08T07:15:39;97318.20;;;2.50
69007;BMP180;56061;51.748;19.620;2023-03-08T07:18:05;97317.00;;;2.60
69007;BMP180;56061;51.748;19.620;2023-03-08T07:20:32;97325.80;;;2.60
69007;BMP180;56061;51.748;19.620;2023-03-08T07:22:59;97324.20;;;2.60
69007;BMP180;56061;51.748;19.620;2023-03-08T07:25:27;97327.40;;;2.70
69007;BMP180;56061;51.748;19.620;2023-03-08T07:27:54;97329.00;;;2.70
69007;BMP180;56061;51.748;19.620;2023-03-08T07:30:20;97331.80;;;2.72
69007;BMP180;56061;51.748;19.620;2023-03-08T07:32:46;97328.20;;;2.82
69007;BMP180;56061;51.748;19.620;2023-03-08T07:35:15;97336.40;;;3.00
69007;BMP180;56061;51.748;19.620;2023-03-08T07:37:46;97329.20;;;3.00
69007;BMP180;56061;51.748;19.620;2023-03-08T07:40:15;97335.20;;;3.10
69007;BMP180;56061;51.748;19.620;2023-03-08T07:42:43;97346.60;;;3.18
69007;BMP180;56061;51.748;19.620;2023-03-08T07:45:11;97352.80;;;3.20
69007;BMP180;56061;51.748;19.620;2023-03-08T07:47:39;97357.00;;;3.20
69007;BMP180;56061;51.748;19.620;2023-03-08T07:50:08;97359.60;;;3.10
69007;BMP180;56061;51.748;19.620;2023-03-08T07:52:34;97358.20;;;3.18
69007;BMP180;56061;51.748;19.620;2023-03-08T07:55:01;97356.20;;;3.20
69007;BMP180;56061;51.748;19.620;2023-03-08T07:57:28;97361.20;;;3.30
69007;BMP180;56061;51.748;19.620;2023-03-08T07:59:54;97355.80;;;3.26
69007;BMP180;56061;51.748;19.620;2023-03-08T08:02:21;97366.00;;;3.20
69007;BMP180;56061;51.748;19.620;2023-03-08T08:04:48;97366.20;;;3.20
69007;BMP180;56061;51.748;19.620;2023-03-08T08:07:16;97366.00;;;3.10
69007;BMP180;56061;51.748;19.620;2023-03-08T08:09:43;97371.00;;;3.12
69007;BMP180;56061;51.748;19.620;2023-03-08T08:12:09;97381.00;;;3.20
69007;BMP180;56061;51.748;19.620;2023-03-08T08:14:37;97383.00;;;3.18
69007;BMP180;56061;51.748;19.620;2023-03-08T08:17:05;97381.40;;;3.00
69007;BMP180;56061;51.748;19.620;2023-03-08T08:19:32;97382.20;;;2.90
69007;BMP180;56061;51.748;19.620;2023-03-08T08:21:59;97380.00;;;3.04
69007;BMP180;56061;51.748;19.620;2023-03-08T08:24:26;97387.40;;;3.20
69007;BMP180;56061;51.748;19.620;2023-03-08T08:26:53;97383.40;;;3.30
69007;BMP180;56061;51.748;19.620;2023-03-08T08:29:20;97376.40;;;3.40
69007;BMP180;56061;51.748;19.620;2023-03-08T08:31:47;97379.80;;;3.60
69007;BMP180;56061;51.748;19.620;2023-03-08T08:34:14;97383.40;;;3.60
69007;BMP180;56061;51.748;19.620;2023-03-08T08:36:40;97388.80;;;3.70
69007;BMP180;56061;51.748;19.620;2023-03-08T08:39:07;97393.60;;;3.80
69007;BMP180;56061;51.748;19.620;2023-03-08T08:41:33;97392.80;;;3.80
69007;BMP180;56061;51.748;19.620;2023-03-08T08:44:00;97394.40;;;3.90
69007;BMP180;56061;51.748;19.620;2023-03-08T08:46:28;97397.80;;;3.98
69007;BMP180;56061;51.748;19.620;2023-03-08T08:48:57;97396.80;;;4.10
69007;BMP180;56061;51.748;19.620;2023-03-08T08:51:24;97403.80;;;4.30
69007;BMP180;56061;51.748;19.620;2023-03-08T08:53:51;97392.60;;;4.30
69007;BMP180;56061;51.748;19.620;2023-03-08T08:56:22;97398.40;;;4.30
69007;BMP180;56061;51.748;19.620;2023-03-08T08:58:56;97395.60;;;4.30
69007;BMP180;56061;51.748;19.620;2023-03-08T09:01:27;97396.00;;;4.40
69007;BMP180;56061;51.748;19.620;2023-03-08T09:03:54;97388.40;;;4.40
69007;BMP180;56061;51.748;19.620;2023-03-08T09:06:23;97397.20;;;4.30
69007;BMP180;56061;51.748;19.620;2023-03-08T09:08:53;97395.60;;;4.20
69007;BMP180;56061;51.748;19.620;2023-03-08T09:11:22;97393.00;;;4.10
69007;BMP180;56061;51.748;19.620;2023-03-08T09:13:49;97382.00;;;4.20
69007;BMP180;56061;51.748;19.620;2023-03-08T09:16:34;97389.20;;;4.22
69007;BMP180;56061;51.748;19.620;2023-03-08T09:19:03;97380.60;;;4.20
69007;BMP180;56061;51.748;19.620;2023-03-08T09:21:32;97390.20;;;4.30
69007;BMP180;56061;51.748;19.620;2023-03-08T09:24:03;97390.20;;;4.30
69007;BMP180;56061;51.748;19.620;2023-03-08T09:26:31;97389.60;;;4.30
69007;BMP180;56061;51.748;19.620;2023-03-08T09:28:59;97391.40;;;4.30
69007;BMP180;56061;51.748;19.620;2023-03-08T09:31:37;97390.20;;;4.20
69007;BMP180;56061;51.748;19.620;2023-03-08T09:34:04;97398.60;;;4.10
69007;BMP180;56061;51.748;19.620;2023-03-08T09:36:36;97399.20;;;3.92
69007;BMP180;56061;51.748;19.620;2023-03-08T09:39:10;97400.00;;;3.80
69007;BMP180;56061;51.748;19.620;2023-03-08T09:44:35;97400.00;;;3.60
69007;BMP180;56061;51.748;19.620;2023-03-08T09:52:51;97407.40;;;3.50
69007;BMP180;56061;51.748;19.620;2023-03-08T09:55:26;97403.20;;;3.60
69007;BMP180;56061;51.748;19.620;2023-03-08T09:58:04;97409.60;;;3.70
69007;BMP180;56061;51.748;19.620;2023-03-08T10:00:37;97403.40;;;3.80
69007;BMP180;56061;51.748;19.620;2023-03-08T10:03:29;97408.00;;;3.90
69007;BMP180;56061;51.748;19.620;2023-03-08T10:06:23;97405.00;;;4.00
69007;BMP180;56061;51.748;19.620;2023-03-08T10:11:59;97402.40;;;4.24
69007;BMP180;56061;51.748;19.620;2023-03-08T10:14:33;97401.40;;;4.30
69007;BMP180;56061;51.748;19.620;2023-03-08T10:17:11;97394.80;;;4.30
69007;BMP180;56061;51.748;19.620;2023-03-08T10:19:47;97396.00;;;4.40
69007;BMP180;56061;51.748;19.620;2023-03-08T10:22:32;97396.00;;;4.50
69007;BMP180;56061;51.748;19.620;2023-03-08T10:25:13;97399.40;;;4.60
69007;BMP180;56061;51.748;19.620;2023-03-08T10:27:46;97399.20;;;4.70
69007;BMP180;56061;51.748;19.620;2023-03-08T10:30:17;97398.40;;;4.80
69007;BMP180;56061;51.748;19.620;2023-03-08T10:32:50;97402.40;;;4.90
69007;BMP180;56061;51.748;19.620;2023-03-08T10:35:39;97399.80;;;4.92
69007;BMP180;56061;51.748;19.620;2023-03-08T10:38:16;97389.00;;;5.10
69007;BMP180;56061;51.748;19.620;2023-03-08T10:40:43;97393.60;;;5.20
69007;BMP180;56061;51.748;19.620;2023-03-08T10:43:26;97389.40;;;5.30
69007;BMP180;56061;51.748;19.620;2023-03-08T10:46:10;97382.40;;;5.48
69007;BMP180;56061;51.748;19.620;2023-03-08T10:48:37;97374.40;;;5.60
69007;BMP180;56061;51.748;19.620;2023-03-08T10:51:15;97367.20;;;5.70
69007;BMP180;56061;51.748;19.620;2023-03-08T10:54:04;97370.20;;;5.80
69007;BMP180;56061;51.748;19.620;2023-03-08T10:56:44;97377.60;;;5.92
69007;BMP180;56061;51.748;19.620;2023-03-08T10:59:21;97380.80;;;6.08
69007;BMP180;56061;51.748;19.620;2023-03-08T11:04:54;97362.60;;;6.30
69007;BMP180;56061;51.748;19.620;2023-03-08T11:07:26;97370.20;;;6.38
69007;BMP180;56061;51.748;19.620;2023-03-08T11:10:17;97363.00;;;6.30
69007;BMP180;56061;51.748;19.620;2023-03-08T11:12:45;97369.00;;;6.30
69007;BMP180;56061;51.748;19.620;2023-03-08T11:15:17;97366.00;;;6.20
69007;BMP180;56061;51.748;19.620;2023-03-08T11:20:48;97346.80;;;5.84
69007;BMP180;56061;51.748;19.620;2023-03-08T11:23:36;97343.20;;;5.80
69007;BMP180;56061;51.748;19.620;2023-03-08T11:26:19;97350.40;;;5.72
69007;BMP180;56061;51.748;19.620;2023-03-08T11:29:25;97342.00;;;5.70
69007;BMP180;56061;51.748;19.620;2023-03-08T11:32:32;97341.00;;;5.70
69007;BMP180;56061;51.748;19.620;2023-03-08T11:35:57;97332.80;;;5.76
69007;BMP180;56061;51.748;19.620;2023-03-08T11:38:30;97325.40;;;6.10
69007;BMP180;56061;51.748;19.620;2023-03-08T11:41:55;97327.00;;;6.20
69007;BMP180;56061;51.748;19.620;2023-03-08T11:50:25;97321.40;;;6.40
69007;BMP180;56061;51.748;19.620;2023-03-08T11:53:19;97326.20;;;6.48
69007;BMP180;56061;51.748;19.620;2023-03-08T11:56:12;97339.40;;;6.50
69007;BMP180;56061;51.748;19.620;2023-03-08T11:59:09;97342.20;;;6.40
69007;BMP180;56061;51.748;19.620;2023-03-08T12:01:48;97338.00;;;6.30
69007;BMP180;56061;51.748;19.620;2023-03-08T12:04:25;97334.60;;;6.30
69007;BMP180;56061;51.748;19.620;2023-03-08T12:06:54;97343.20;;;6.20
69007;BMP180;56061;51.748;19.620;2023-03-08T12:09:30;97343.60;;;6.18
69007;BMP180;56061;51.748;19.620;2023-03-08T12:12:10;97333.60;;;6.10
69007;BMP180;56061;51.748;19.620;2023-03-08T12:14:54;97329.00;;;6.10
69007;BMP180;56061;51.748;19.620;2023-03-08T12:17:33;97331.00;;;6.12
69007;BMP180;56061;51.748;19.620;2023-03-08T12:20:01;97325.40;;;6.20
69007;BMP180;56061;51.748;19.620;2023-03-08T12:22:44;97327.60;;;6.20
69007;BMP180;56061;51.748;19.620;2023-03-08T12:25:25;97325.00;;;6.20
69007;BMP180;56061;51.748;19.620;2023-03-08T12:28:03;97324.00;;;6.20
69007;BMP180;56061;51.748;19.620;2023-03-08T12:33:29;97323.60;;;6.10
69007;BMP180;56061;51.748;19.620;2023-03-08T12:36:06;97322.00;;;6.00
69007;BMP180;56061;51.748;19.620;2023-03-08T12:38:40;97322.20;;;5.86
69007;BMP180;56061;51.748;19.620;2023-03-08T12:41:26;97322.80;;;5.80
69007;BMP180;56061;51.748;19.620;2023-03-08T12:47:21;97328.00;;;5.80
69007;BMP180;56061;51.748;19.620;2023-03-08T12:49:53;97327.60;;;5.70
69007;BMP180;56061;51.748;19.620;2023-03-08T12:52:32;97325.00;;;5.60
69007;BMP180;56061;51.748;19.620;2023-03-08T12:55:18;97321.20;;;5.70
69007;BMP180;56061;51.748;19.620;2023-03-08T12:57:50;97316.40;;;5.84
69007;BMP180;56061;51.748;19.620;2023-03-08T13:02:45;97301.00;;;6.20
69007;BMP180;56061;51.748;19.620;2023-03-08T13:05:30;97307.20;;;6.24
69007;BMP180;56061;51.748;19.620;2023-03-08T13:08:04;97298.40;;;6.30
69007;BMP180;56061;51.748;19.620;2023-03-08T13:10:36;97298.80;;;6.30
69007;BMP180;56061;51.748;19.620;2023-03-08T13:13:15;97295.80;;;6.30
69007;BMP180;56061;51.748;19.620;2023-03-08T13:18:32;97281.40;;;6.30
69007;BMP180;56061;51.748;19.620;2023-03-08T13:21:31;97272.80;;;6.30
69007;BMP180;56061;51.748;19.620;2023-03-08T13:24:50;97272.80;;;6.30
69007;BMP180;56061;51.748;19.620;2023-03-08T13:27:43;97274.80;;;6.30
69007;BMP180;56061;51.748;19.620;2023-03-08T13:30:32;97275.20;;;6.14
69007;BMP180;56061;51.748;19.620;2023-03-08T13:33:05;97272.40;;;6.00
69007;BMP180;56061;51.748;19.620;2023-03-08T13:35:33;97267.00;;;6.00
69007;BMP180;56061;51.748;19.620;2023-03-08T13:38:00;97268.20;;;5.94
69007;BMP180;56061;51.748;19.620;2023-03-08T13:40:28;97266.80;;;5.90
69007;BMP180;56061;51.748;19.620;2023-03-08T13:43:03;97260.00;;;5.80
69007;BMP180;56061;51.748;19.620;2023-03-08T13:45:36;97263.60;;;5.70
69007;BMP180;56061;51.748;19.620;2023-03-08T13:48:07;97257.40;;;5.70
69007;BMP180;56061;51.748;19.620;2023-03-08T13:50:40;97256.80;;;5.70
69007;BMP180;56061;51.748;19.620;2023-03-08T13:53:13;97259.00;;;5.70
69007;BMP180;56061;51.748;19.620;2023-03-08T13:55:45;97260.20;;;5.76
69007;BMP180;56061;51.748;19.620;2023-03-08T13:58:37;97256.40;;;5.78
69007;BMP180;56061;51.748;19.620;2023-03-08T14:01:16;97255.00;;;5.72
69007;BMP180;56061;51.748;19.620;2023-03-08T14:03:45;97247.40;;;5.70
69007;BMP180;56061;51.748;19.620;2023-03-08T14:06:29;97240.80;;;5.70
69007;BMP180;56061;51.748;19.620;2023-03-08T14:08:57;97237.00;;;5.70
69007;BMP180;56061;51.748;19.620;2023-03-08T14:11:34;97233.00;;;5.70
69007;BMP180;56061;51.748;19.620;2023-03-08T14:14:05;97232.40;;;5.70
69007;BMP180;56061;51.748;19.620;2023-03-08T14:16:37;97231.80;;;5.80
69007;BMP180;56061;51.748;19.620;2023-03-08T14:19:29;97230.00;;;5.80
69007;BMP180;56061;51.748;19.620;2023-03-08T14:22:00;97228.40;;;5.90
69007;BMP180;56061;51.748;19.620;2023-03-08T14:24:33;97229.40;;;5.86
69007;BMP180;56061;51.748;19.620;2023-03-08T14:27:05;97228.80;;;5.80
69007;BMP180;56061;51.748;19.620;2023-03-08T14:29:34;97226.80;;;5.80
69007;BMP180;56061;51.748;19.620;2023-03-08T14:32:05;97229.00;;;5.80
69007;BMP180;56061;51.748;19.620;2023-03-08T14:34:48;97222.40;;;5.80
69007;BMP180;56061;51.748;19.620;2023-03-08T14:37:27;97220.20;;;5.80
69007;BMP180;56061;51.748;19.620;2023-03-08T14:42:48;97211.00;;;5.80
69007;BMP180;56061;51.748;19.620;2023-03-08T14:47:58;97211.00;;;5.80
69007;BMP180;56061;51.748;19.620;2023-03-08T14:50:28;97210.60;;;5.72
69007;BMP180;56061;51.748;19.620;2023-03-08T14:53:01;97204.60;;;5.70
69007;BMP180;56061;51.748;19.620;2023-03-08T14:55:32;97196.80;;;5.60
69007;BMP180;56061;51.748;19.620;2023-03-08T14:58:07;97191.20;;;5.50
69007;BMP180;56061;51.748;19.620;2023-03-08T15:00:35;97190.80;;;5.40
69007;BMP180;56061;51.748;19.620;2023-03-08T15:03:03;97186.80;;;5.40
69007;BMP180;56061;51.748;19.620;2023-03-08T15:05:29;97180.60;;;5.30
69007;BMP180;56061;51.748;19.620;2023-03-08T15:07:58;97182.80;;;5.20
69007;BMP180;56061;51.748;19.620;2023-03-08T15:10:31;97187.00;;;5.20
69007;BMP180;56061;51.748;19.620;2023-03-08T15:12:58;97186.20;;;5.10
69007;BMP180;56061;51.748;19.620;2023-03-08T15:15:25;97184.40;;;5.00
69007;BMP180;56061;51.748;19.620;2023-03-08T15:17:52;97186.80;;;4.90
69007;BMP180;56061;51.748;19.620;2023-03-08T15:20:19;97183.80;;;4.80